Terminal Aerodrome Forecast
Issued by NWS

Home | Current Version | Previous Version | Text Only | Print | Product List | Glossary On
Versions: 1 2 3 4 5 6 7 8 9 10 11 12 13 14 15 16 17 18 19 20 21 22 23 24 25 26 27 28 29
684
FTUS44 KEWX 270646 AAA
TAFSSF
TAF AMD
KSSF 270646Z 2707/2806 10003KT P6SM SCT012
     FM271000 VRB03KT P6SM BKN012
     FM271600 16008KT P6SM BKN035
     FM271800 15009KT P6SM VCTS BKN050CB
     FM272200 13010KT P6SM SCT050 BKN150=

USA.gov is the U.S. government's official web portal to all federal, state and local government web resources and services.